Time;durP1;ratioP1;P1;durP2;ratioP2;P2;SDS_P1;SDS_P2;PMS_P1;PMS_P2;Temp;Humidity;BMP_temperature;BMP_pressure;BME280_temperature;BME280_humidity;BME280_pressure;Samples;Min_cycle;Max_cycle;Signal;HPM_P1;HPM_P2
2023/08/27 00:00:44;;;;;;;16.60;8.60;;;;;;;;;;4985805;28;20464;-88
2023/08/27 00:03:10;;;;;;;12.23;9.87;;;;;;;;;;5002693;28;20860;-88
2023/08/27 00:05:55;;;;;;;10.43;8.77;;;;;;;;;;4967873;28;20611;-88
2023/08/27 00:08:21;;;;;;;9.90;8.63;;;;;;;;;;4982662;28;20587;-88
2023/08/27 00:10:47;;;;;;;17.87;10.30;;;;;;;;;;5007965;28;20451;-88
2023/08/27 00:13:13;;;;;;;11.47;9.80;;;;;;;;;;4994962;28;20428;-89
2023/08/27 00:15:45;;;;;;;10.70;9.57;;;;;;;;;;4975084;28;20440;-88
2023/08/27 00:18:10;;;;;;;12.10;9.90;;;;;;;;;;5003538;28;20429;-87
2023/08/27 00:20:36;;;;;;;11.63;8.70;;;;;;;;;;4973064;28;20499;-87
2023/08/27 00:23:04;;;;;;;12.37;8.83;;;;;;;;;;5012295;28;20481;-89
2023/08/27 00:25:29;;;;;;;12.10;10.00;;;;;;;;;;5002441;28;20440;-87
2023/08/27 00:27:56;;;;;;;10.47;9.30;;;;;;;;;;5003640;28;20425;-87
2023/08/27 00:30:22;;;;;;;11.10;9.50;;;;;;;;;;4971990;28;20815;-87
2023/08/27 00:32:47;;;;;;;13.70;9.93;;;;;;;;;;5006012;28;20895;-87
2023/08/27 00:35:14;;;;;;;10.67;9.50;;;;;;;;;;5015607;28;20444;-88
2023/08/27 00:37:40;;;;;;;11.70;9.90;;;;;;;;;;4984203;28;20433;-88
2023/08/27 00:40:06;;;;;;;12.33;11.13;;;;;;;;;;4969673;28;20460;-87
2023/08/27 00:42:32;;;;;;;10.50;9.47;;;;;;;;;;4977418;28;20434;-88
2023/08/27 00:44:58;;;;;;;12.30;9.50;;;;;;;;;;4992924;28;20497;-88
2023/08/27 00:47:24;;;;;;;12.07;8.50;;;;;;;;;;4962577;28;20949;-88
2023/08/27 00:49:50;;;;;;;11.70;10.40;;;;;;;;;;4990638;28;20474;-89
2023/08/27 00:52:17;;;;;;;9.70;8.70;;;;;;;;;;4980028;28;20437;-88
2023/08/27 00:54:43;;;;;;;13.90;10.60;;;;;;;;;;4966802;28;20469;-88
2023/08/27 00:57:09;;;;;;;9.53;8.53;;;;;;;;;;4986739;28;21038;-87
2023/08/27 00:59:35;;;;;;;10.80;9.50;;;;;;;;;;4978247;28;20841;-87
2023/08/27 01:02:02;;;;;;;11.13;9.13;;;;;;;;;;4998845;28;20519;-87
2023/08/27 01:04:28;;;;;;;13.17;10.10;;;;;;;;;;4983736;28;20836;-87
2023/08/27 01:06:55;;;;;;;11.30;9.47;;;;;;;;;;4962619;28;20457;-87
2023/08/27 01:09:28;;;;;;;13.30;8.37;;;;;;;;;;4973041;28;20433;-87
2023/08/27 01:12:08;;;;;;;10.00;9.00;;;;;;;;;;4997686;28;20405;-87
2023/08/27 01:14:34;;;;;;;13.10;9.97;;;;;;;;;;4989801;28;20436;-88
2023/08/27 01:17:01;;;;;;;11.40;9.40;;;;;;;;;;4964980;28;20435;-87
2023/08/27 01:19:27;;;;;;;10.80;9.50;;;;;;;;;;5004942;28;20467;-90
2023/08/27 01:21:53;;;;;;;12.80;9.87;;;;;;;;;;4966077;28;20532;-87
2023/08/27 01:24:19;;;;;;;12.00;9.30;;;;;;;;;;4967597;28;20468;-88
2023/08/27 01:26:49;;;;;;;11.50;9.77;;;;;;;;;;4964335;28;20429;-87
2023/08/27 01:29:15;;;;;;;12.73;9.83;;;;;;;;;;4985538;28;20445;-87
2023/08/27 01:31:45;;;;;;;13.80;10.40;;;;;;;;;;4999526;28;20401;-87
2023/08/27 01:34:11;;;;;;;11.77;10.43;;;;;;;;;;4991973;28;20511;-88
2023/08/27 01:36:37;;;;;;;10.43;9.10;;;;;;;;;;4999358;28;21042;-89
2023/08/27 01:39:07;;;;;;;12.83;10.77;;;;;;;;;;4969016;28;20440;-88
2023/08/27 01:41:34;;;;;;;11.63;9.30;;;;;;;;;;5006558;28;20481;-85
2023/08/27 01:44:00;;;;;;;12.50;9.93;;;;;;;;;;4986689;28;20449;-87
2023/08/27 01:46:26;;;;;;;10.57;9.27;;;;;;;;;;4964957;28;20461;-86
2023/08/27 01:48:52;;;;;;;10.37;8.20;;;;;;;;;;4967016;28;20432;-88
2023/08/27 01:51:18;;;;;;;9.70;8.70;;;;;;;;;;5010198;28;20445;-87
2023/08/27 01:53:44;;;;;;;12.03;9.30;;;;;;;;;;4973587;28;20440;-87
2023/08/27 01:56:10;;;;;;;13.60;8.50;;;;;;;;;;4995650;28;20456;-86
2023/08/27 01:58:36;;;;;;;13.20;9.10;;;;;;;;;;4983369;28;20960;-86
2023/08/27 02:01:02;;;;;;;10.13;8.93;;;;;;;;;;4982645;28;20499;-88
2023/08/27 02:03:28;;;;;;;12.73;9.17;;;;;;;;;;4970690;28;20464;-87
2023/08/27 02:05:54;;;;;;;10.10;8.37;;;;;;;;;;4965681;28;20541;-88
2023/08/27 02:08:20;;;;;;;11.30;9.60;;;;;;;;;;4971341;28;21199;-87
2023/08/27 02:10:48;;;;;;;18.10;8.40;;;;;;;;;;4965268;28;20467;-87
2023/08/27 02:13:14;;;;;;;9.90;8.43;;;;;;;;;;5005386;28;21119;-86
2023/08/27 02:15:40;;;;;;;9.27;8.33;;;;;;;;;;4964452;28;20437;-87
2023/08/27 02:18:06;;;;;;;10.10;8.97;;;;;;;;;;4966212;28;20549;-87
2023/08/27 02:20:33;;;;;;;10.73;8.67;;;;;;;;;;4984376;28;20496;-86
2023/08/27 02:22:59;;;;;;;9.23;8.23;;;;;;;;;;4964752;28;20434;-86
2023/08/27 02:25:25;;;;;;;9.97;8.93;;;;;;;;;;4965704;28;20439;-87
2023/08/27 02:27:51;;;;;;;11.23;8.70;;;;;;;;;;4983446;28;20471;-88
2023/08/27 02:30:17;;;;;;;10.93;8.30;;;;;;;;;;4973999;28;20431;-87
2023/08/27 02:32:46;;;;;;;11.53;9.30;;;;;;;;;;4968351;28;20425;-85
2023/08/27 02:35:13;;;;;;;16.40;9.67;;;;;;;;;;4988426;28;20517;-86
2023/08/27 02:37:39;;;;;;;9.27;8.37;;;;;;;;;;4965557;28;20453;-87
2023/08/27 02:40:05;;;;;;;10.90;7.80;;;;;;;;;;4992551;28;20655;-88
2023/08/27 02:42:31;;;;;;;10.80;8.87;;;;;;;;;;5001829;28;20436;-87
2023/08/27 02:44:57;;;;;;;7.57;6.70;;;;;;;;;;4969644;28;20465;-86
2023/08/27 02:47:23;;;;;;;11.03;7.33;;;;;;;;;;4973985;28;20477;-88
2023/08/27 02:49:50;;;;;;;12.00;7.93;;;;;;;;;;4993329;28;20429;-87
2023/08/27 02:52:16;;;;;;;10.20;8.10;;;;;;;;;;4963001;28;20456;-84
2023/08/27 02:54:42;;;;;;;7.90;6.27;;;;;;;;;;4967424;28;20456;-87
2023/08/27 02:57:08;;;;;;;7.93;6.50;;;;;;;;;;4991819;28;20481;-86
2023/08/27 02:59:34;;;;;;;8.27;6.90;;;;;;;;;;4983025;28;20507;-88
2023/08/27 03:02:00;;;;;;;7.57;6.67;;;;;;;;;;4963619;28;20456;-88
2023/08/27 03:04:26;;;;;;;8.57;6.67;;;;;;;;;;5001321;28;20764;-87
2023/08/27 03:06:52;;;;;;;9.47;8.50;;;;;;;;;;4982168;28;20437;-87
2023/08/27 03:09:18;;;;;;;12.07;6.47;;;;;;;;;;4966480;28;20437;-87
2023/08/27 03:11:44;;;;;;;10.90;7.93;;;;;;;;;;4962885;28;20481;-86
2023/08/27 03:14:10;;;;;;;11.67;7.50;;;;;;;;;;4985505;28;20417;-86
2023/08/27 03:16:37;;;;;;;8.50;7.67;;;;;;;;;;4969625;28;20449;-85
2023/08/27 03:19:03;;;;;;;8.30;7.17;;;;;;;;;;5001395;28;20473;-87
2023/08/27 03:21:29;;;;;;;9.83;6.37;;;;;;;;;;4969838;28;20460;-88
2023/08/27 03:23:55;;;;;;;10.90;6.70;;;;;;;;;;4970072;28;20443;-86
2023/08/27 03:26:21;;;;;;;10.90;8.07;;;;;;;;;;4983472;28;20425;-85
2023/08/27 03:28:47;;;;;;;11.13;8.90;;;;;;;;;;4972007;28;20429;-86
2023/08/27 03:31:13;;;;;;;15.83;9.67;;;;;;;;;;4956726;28;20429;-87
2023/08/27 03:33:38;;;;;;;11.80;10.20;;;;;;;;;;5008011;28;20444;-87
2023/08/27 03:36:05;;;;;;;10.73;9.00;;;;;;;;;;4994223;28;20437;-87
2023/08/27 03:38:31;;;;;;;11.27;8.63;;;;;;;;;;5007218;28;20433;-86
2023/08/27 03:40:57;;;;;;;12.93;10.10;;;;;;;;;;4990444;28;20457;-86
2023/08/27 03:43:23;;;;;;;14.33;10.77;;;;;;;;;;4970408;28;20495;-86
2023/08/27 03:45:49;;;;;;;16.13;11.13;;;;;;;;;;4990959;28;20432;-86
2023/08/27 03:48:15;;;;;;;13.53;11.10;;;;;;;;;;4988925;28;20464;-86
2023/08/27 03:50:41;;;;;;;12.80;10.37;;;;;;;;;;4932521;28;20894;-86
2023/08/27 03:53:07;;;;;;;15.50;11.10;;;;;;;;;;4963773;28;20447;-85
2023/08/27 03:55:39;;;;;;;11.83;9.53;;;;;;;;;;4970379;28;20431;-86
2023/08/27 03:58:06;;;;;;;15.30;11.80;;;;;;;;;;4964481;28;20469;-87
2023/08/27 04:00:33;;;;;;;12.87;10.60;;;;;;;;;;4967300;28;20470;-86
2023/08/27 04:02:59;;;;;;;9.80;8.80;;;;;;;;;;4953059;28;20473;-86
2023/08/27 04:05:25;;;;;;;13.93;10.60;;;;;;;;;;4947802;28;20424;-88
2023/08/27 04:07:51;;;;;;;12.20;10.60;;;;;;;;;;4951090;28;20454;-87
2023/08/27 04:10:20;;;;;;;14.63;9.50;;;;;;;;;;4955188;29;20872;-86
2023/08/27 04:12:46;;;;;;;10.73;9.20;;;;;;;;;;4962680;28;20538;-86
2023/08/27 04:15:12;;;;;;;12.37;10.97;;;;;;;;;;4946116;29;20989;-86
2023/08/27 04:17:38;;;;;;;12.00;10.70;;;;;;;;;;4945125;28;20446;-86
2023/08/27 04:20:04;;;;;;;14.73;10.13;;;;;;;;;;4958445;29;20440;-87
2023/08/27 04:22:30;;;;;;;14.30;10.37;;;;;;;;;;4943919;29;20457;-86
2023/08/27 04:24:56;;;;;;;13.43;10.00;;;;;;;;;;4945193;28;20449;-86
2023/08/27 04:27:22;;;;;;;13.77;9.40;;;;;;;;;;4952434;28;20462;-88
2023/08/27 04:29:48;;;;;;;12.80;10.70;;;;;;;;;;4978603;28;20425;-86
2023/08/27 04:32:14;;;;;;;13.63;9.90;;;;;;;;;;4988936;28;20472;-86
2023/08/27 04:34:40;;;;;;;11.93;10.00;;;;;;;;;;4967110;28;20446;-87
2023/08/27 04:37:06;;;;;;;14.03;10.13;;;;;;;;;;4972235;28;20433;-87
2023/08/27 04:39:34;;;;;;;11.83;9.63;;;;;;;;;;4978726;28;20442;-88
2023/08/27 04:42:00;;;;;;;10.60;8.57;;;;;;;;;;5007628;28;20456;-87
2023/08/27 04:44:26;;;;;;;12.40;10.53;;;;;;;;;;4999324;28;20421;-87
2023/08/27 04:46:54;;;;;;;14.27;9.20;;;;;;;;;;4998338;28;20933;-87
2023/08/27 04:49:20;;;;;;;11.03;8.90;;;;;;;;;;5001619;28;20493;-88
2023/08/27 04:51:46;;;;;;;12.97;10.50;;;;;;;;;;5012981;28;20878;-87
2023/08/27 04:54:12;;;;;;;10.90;9.80;;;;;;;;;;4965066;28;20540;-87
2023/08/27 04:56:38;;;;;;;17.80;10.20;;;;;;;;;;4967697;28;20476;-87
2023/08/27 04:59:05;;;;;;;9.27;8.30;;;;;;;;;;4968868;28;20421;-86
2023/08/27 05:01:31;;;;;;;11.80;8.00;;;;;;;;;;4969445;28;20461;-87
2023/08/27 05:03:56;;;;;;;12.70;7.87;;;;;;;;;;5003482;28;20443;-88
2023/08/27 05:06:22;;;;;;;8.80;7.70;;;;;;;;;;4996739;28;20467;-87
2023/08/27 05:08:48;;;;;;;9.70;7.23;;;;;;;;;;4978914;28;20432;-88
2023/08/27 05:11:15;;;;;;;7.90;7.17;;;;;;;;;;5003708;28;20440;-91
2023/08/27 05:13:41;;;;;;;14.30;7.07;;;;;;;;;;4999555;28;20409;-90
2023/08/27 05:16:07;;;;;;;10.43;8.00;;;;;;;;;;4971498;28;20416;-91
2023/08/27 05:18:33;;;;;;;7.00;5.70;;;;;;;;;;4970265;28;20429;-87
2023/08/27 05:20:59;;;;;;;6.67;6.00;;;;;;;;;;4979746;28;20520;-88
2023/08/27 05:23:26;;;;;;;8.17;6.20;;;;;;;;;;4979921;28;20508;-87
2023/08/27 05:25:52;;;;;;;6.90;6.20;;;;;;;;;;4982184;28;21895;-87
2023/08/27 05:28:18;;;;;;;6.47;4.97;;;;;;;;;;5000531;28;20472;-87
2023/08/27 05:30:45;;;;;;;5.27;4.80;;;;;;;;;;4969141;28;20563;-87
2023/08/27 05:33:11;;;;;;;6.23;4.80;;;;;;;;;;4991055;28;20440;-87
2023/08/27 05:35:37;;;;;;;7.20;6.10;;;;;;;;;;4978235;28;20425;-87
2023/08/27 05:38:03;;;;;;;8.17;6.20;;;;;;;;;;4991420;28;20476;-87
2023/08/27 05:40:29;;;;;;;5.40;4.83;;;;;;;;;;4967145;28;20469;-86
2023/08/27 05:42:55;;;;;;;5.30;4.50;;;;;;;;;;4969376;28;20457;-85
2023/08/27 05:45:21;;;;;;;7.00;4.23;;;;;;;;;;4978561;28;20456;-87
2023/08/27 05:47:48;;;;;;;5.00;4.20;;;;;;;;;;4965729;28;20440;-86
2023/08/27 05:50:14;;;;;;;5.43;4.27;;;;;;;;;;4981098;28;20444;-87
2023/08/27 05:52:40;;;;;;;6.20;4.57;;;;;;;;;;4964980;28;20429;-85
2023/08/27 05:55:06;;;;;;;5.30;4.50;;;;;;;;;;4997899;28;20539;-87
2023/08/27 05:57:32;;;;;;;7.63;5.20;;;;;;;;;;5007414;28;20572;-87
2023/08/27 05:59:58;;;;;;;7.67;4.33;;;;;;;;;;4986178;28;20437;-88
2023/08/27 06:02:24;;;;;;;5.30;4.50;;;;;;;;;;4968165;28;20444;-88
2023/08/27 06:04:50;;;;;;;5.97;4.10;;;;;;;;;;4981225;28;20421;-87
2023/08/27 06:07:16;;;;;;;6.60;4.30;;;;;;;;;;4985259;28;21022;-90
2023/08/27 06:09:42;;;;;;;4.17;3.77;;;;;;;;;;4967475;28;20444;-89
2023/08/27 06:12:08;;;;;;;6.60;4.13;;;;;;;;;;4963516;28;20436;-89
2023/08/27 06:14:34;;;;;;;7.73;3.83;;;;;;;;;;4963590;28;20491;-88
2023/08/27 06:17:03;;;;;;;4.40;3.73;;;;;;;;;;4963946;28;20444;-87
2023/08/27 06:19:34;;;;;;;4.07;3.60;;;;;;;;;;4966908;28;20433;-88
2023/08/27 06:22:01;;;;;;;3.40;2.60;;;;;;;;;;5006137;28;20460;-88
2023/08/27 06:24:27;;;;;;;2.50;2.30;;;;;;;;;;4967915;28;20436;-88
2023/08/27 06:26:53;;;;;;;3.63;3.33;;;;;;;;;;4965620;28;20474;-88
2023/08/27 06:29:19;;;;;;;3.47;3.17;;;;;;;;;;4967217;28;21007;-88
2023/08/27 06:31:45;;;;;;;3.90;3.40;;;;;;;;;;4961033;28;20441;-87
2023/08/27 06:34:11;;;;;;;4.20;3.60;;;;;;;;;;4978186;28;20418;-88
2023/08/27 06:36:37;;;;;;;6.43;3.67;;;;;;;;;;4975162;28;20457;-89
2023/08/27 06:39:03;;;;;;;3.60;2.70;;;;;;;;;;4966373;28;20460;-87
2023/08/27 06:41:29;;;;;;;3.47;2.60;;;;;;;;;;4982520;28;20488;-88
2023/08/27 06:43:55;;;;;;;2.60;2.37;;;;;;;;;;4983945;28;20441;-88
2023/08/27 06:46:22;;;;;;;2.37;2.00;;;;;;;;;;4967311;28;20479;-89
2023/08/27 06:48:48;;;;;;;3.47;2.60;;;;;;;;;;4980695;28;20515;-88
2023/08/27 06:51:14;;;;;;;2.60;2.10;;;;;;;;;;4967029;28;20437;-88
2023/08/27 06:53:40;;;;;;;2.57;2.20;;;;;;;;;;4974357;28;20445;-87
2023/08/27 06:56:06;;;;;;;2.60;2.40;;;;;;;;;;4981664;28;20436;-88
2023/08/27 06:58:32;;;;;;;3.30;2.03;;;;;;;;;;4967091;28;20465;-88
2023/08/27 07:01:04;;;;;;;3.00;2.70;;;;;;;;;;4965876;28;20453;-88
2023/08/27 07:03:30;;;;;;;3.13;2.57;;;;;;;;;;4982245;28;20469;-88
2023/08/27 07:05:56;;;;;;;4.50;2.63;;;;;;;;;;4967315;28;20507;-88
2023/08/27 07:08:22;;;;;;;5.13;2.63;;;;;;;;;;4978492;28;20433;-89
2023/08/27 07:10:48;;;;;;;2.60;2.27;;;;;;;;;;5002437;28;20494;-88
2023/08/27 07:13:16;;;;;;;3.27;2.57;;;;;;;;;;4981798;28;20821;-88
2023/08/27 07:15:42;;;;;;;5.67;2.43;;;;;;;;;;4965148;28;20499;-88
2023/08/27 07:18:08;;;;;;;2.57;2.37;;;;;;;;;;4980025;28;20457;-89
2023/08/27 07:20:35;;;;;;;2.80;2.13;;;;;;;;;;4966462;28;20477;-88
2023/08/27 07:23:05;;;;;;;3.63;2.03;;;;;;;;;;5002989;28;20409;-88
2023/08/27 07:25:32;;;;;;;2.77;2.37;;;;;;;;;;5000005;28;20445;-87
2023/08/27 07:27:58;;;;;;;2.80;2.37;;;;;;;;;;4978455;28;20517;-88
2023/08/27 07:30:24;;;;;;;3.20;2.10;;;;;;;;;;4978347;28;20449;-87
2023/08/27 07:32:51;;;;;;;4.03;2.33;;;;;;;;;;4977543;28;20559;-87
2023/08/27 07:35:18;;;;;;;5.90;2.07;;;;;;;;;;4980148;28;20449;-88
2023/08/27 07:37:44;;;;;;;2.27;2.03;;;;;;;;;;4994581;28;20488;-87
2023/08/27 07:40:10;;;;;;;2.40;2.20;;;;;;;;;;4968896;28;20405;-87
2023/08/27 07:42:36;;;;;;;6.70;2.50;;;;;;;;;;4971861;28;20477;-87
2023/08/27 07:45:02;;;;;;;3.90;2.40;;;;;;;;;;4987081;28;20421;-88
2023/08/27 07:47:28;;;;;;;3.30;2.23;;;;;;;;;;4982608;28;20437;-88
2023/08/27 07:49:54;;;;;;;2.33;2.13;;;;;;;;;;4972260;28;20477;-89
2023/08/27 07:52:20;;;;;;;2.10;1.80;;;;;;;;;;4989495;28;20438;-88
2023/08/27 07:54:46;;;;;;;2.43;2.07;;;;;;;;;;4997353;28;20449;-87
2023/08/27 07:57:12;;;;;;;2.53;2.03;;;;;;;;;;4992527;28;20758;-88
2023/08/27 07:59:38;;;;;;;2.20;1.83;;;;;;;;;;4969888;28;20438;-90
2023/08/27 08:02:04;;;;;;;4.23;2.30;;;;;;;;;;4984648;28;20476;-87
2023/08/27 08:04:31;;;;;;;3.17;2.20;;;;;;;;;;4968129;28;20433;-88
2023/08/27 08:06:57;;;;;;;2.93;2.37;;;;;;;;;;4983335;28;20524;-87
2023/08/27 08:09:23;;;;;;;2.67;1.50;;;;;;;;;;4965516;28;20972;-87
2023/08/27 08:11:49;;;;;;;3.40;2.70;;;;;;;;;;4968004;28;20425;-88
2023/08/27 08:14:15;;;;;;;2.07;1.83;;;;;;;;;;4968237;28;20432;-88
2023/08/27 08:16:41;;;;;;;5.03;2.27;;;;;;;;;;4971782;28;21243;-87
2023/08/27 08:19:08;;;;;;;2.33;1.67;;;;;;;;;;4983100;28;20440;-87
2023/08/27 08:21:34;;;;;;;7.10;3.07;;;;;;;;;;4973694;28;20473;-87
2023/08/27 08:24:00;;;;;;;2.50;2.30;;;;;;;;;;4950119;28;20475;-88
2023/08/27 08:26:26;;;;;;;1.70;1.40;;;;;;;;;;4940140;28;20448;-88
2023/08/27 08:28:52;;;;;;;2.90;2.10;;;;;;;;;;4952320;28;20493;-87
2023/08/27 08:31:18;;;;;;;2.07;1.77;;;;;;;;;;4953476;28;20476;-87
2023/08/27 08:33:44;;;;;;;2.37;1.70;;;;;;;;;;4961673;28;20444;-86
2023/08/27 08:36:10;;;;;;;4.00;2.00;;;;;;;;;;4965050;28;20432;-88
2023/08/27 08:38:37;;;;;;;4.00;2.20;;;;;;;;;;4946666;28;20430;-87
2023/08/27 08:41:03;;;;;;;2.50;1.77;;;;;;;;;;4947143;28;20465;-86
2023/08/27 08:43:40;;;;;;;2.73;1.83;;;;;;;;;;4946933;28;20428;-86
2023/08/27 08:46:06;;;;;;;3.90;1.40;;;;;;;;;;4948607;28;20797;-86
2023/08/27 08:48:39;;;;;;;2.97;1.83;;;;;;;;;;4960299;28;20428;-85
2023/08/27 08:51:06;;;;;;;2.73;2.00;;;;;;;;;;4956378;28;20433;-86
2023/08/27 08:53:33;;;;;;;1.93;1.73;;;;;;;;;;4981212;28;20469;-86
2023/08/27 08:56:01;;;;;;;2.13;1.37;;;;;;;;;;4965428;28;20856;-87
2023/08/27 08:58:27;;;;;;;2.57;1.90;;;;;;;;;;4994579;28;20461;-87
2023/08/27 09:00:54;;;;;;;2.40;1.43;;;;;;;;;;4985684;28;21106;-88
2023/08/27 09:03:20;;;;;;;2.47;1.67;;;;;;;;;;4984055;28;20552;-85
2023/08/27 09:05:46;;;;;;;2.87;1.80;;;;;;;;;;4997205;28;20498;-87
2023/08/27 09:08:12;;;;;;;2.77;2.57;;;;;;;;;;5003667;28;20425;-86
2023/08/27 09:10:38;;;;;;;2.90;1.73;;;;;;;;;;4963504;28;20440;-87
2023/08/27 09:13:05;;;;;;;3.77;1.60;;;;;;;;;;4966243;28;20441;-86
2023/08/27 09:15:31;;;;;;;3.43;1.60;;;;;;;;;;5006946;28;21211;-86
2023/08/27 09:17:57;;;;;;;3.13;2.43;;;;;;;;;;4966851;28;20437;-85
2023/08/27 09:20:24;;;;;;;2.17;1.87;;;;;;;;;;4983616;28;20460;-87
2023/08/27 09:22:50;;;;;;;4.73;2.13;;;;;;;;;;4984620;28;20408;-86
2023/08/27 09:25:16;;;;;;;2.30;1.30;;;;;;;;;;5000970;28;20429;-88
2023/08/27 09:27:42;;;;;;;3.67;1.70;;;;;;;;;;4985133;28;20443;-85
2023/08/27 09:30:09;;;;;;;3.60;1.77;;;;;;;;;;4972928;28;20440;-86
2023/08/27 09:32:35;;;;;;;2.30;1.60;;;;;;;;;;4962046;28;20445;-86
2023/08/27 09:35:01;;;;;;;4.00;2.10;;;;;;;;;;4966782;28;20441;-86
2023/08/27 09:37:28;;;;;;;3.40;2.00;;;;;;;;;;4999123;28;20442;-86
2023/08/27 09:39:54;;;;;;;2.70;1.80;;;;;;;;;;4975909;28;20447;-86
2023/08/27 09:42:21;;;;;;;1.97;1.70;;;;;;;;;;4966052;28;21053;-87
2023/08/27 09:44:50;;;;;;;2.60;2.17;;;;;;;;;;4998161;28;20443;-87
2023/08/27 09:47:16;;;;;;;2.27;1.90;;;;;;;;;;4997778;28;20464;-85
2023/08/27 09:49:45;;;;;;;3.80;2.23;;;;;;;;;;4977344;28;20441;-86
2023/08/27 09:52:11;;;;;;;2.10;1.73;;;;;;;;;;5000482;28;20444;-86
2023/08/27 09:54:37;;;;;;;2.97;2.00;;;;;;;;;;4986789;28;20461;-88
2023/08/27 09:57:23;;;;;;;2.50;1.60;;;;;;;;;;4976050;28;20476;-86
2023/08/27 09:59:50;;;;;;;2.43;1.63;;;;;;;;;;5001120;28;20430;-88
2023/08/27 10:02:19;;;;;;;2.87;2.10;;;;;;;;;;4964957;28;20480;-88
2023/08/27 10:04:53;;;;;;;2.30;1.80;;;;;;;;;;4986199;28;20499;-89
2023/08/27 10:07:20;;;;;;;2.47;1.83;;;;;;;;;;4997012;28;20453;-87
2023/08/27 10:09:50;;;;;;;2.10;1.30;;;;;;;;;;4993937;28;20576;-87
2023/08/27 10:12:17;;;;;;;2.93;1.87;;;;;;;;;;4978616;28;20446;-86
2023/08/27 10:14:43;;;;;;;2.00;1.80;;;;;;;;;;4989579;28;20450;-87
2023/08/27 10:17:09;;;;;;;3.20;2.10;;;;;;;;;;4975541;28;20449;-90
2023/08/27 10:19:35;;;;;;;2.20;1.60;;;;;;;;;;5001454;28;20435;-87
2023/08/27 10:22:01;;;;;;;2.87;1.90;;;;;;;;;;4967717;28;20464;-88
2023/08/27 10:24:29;;;;;;;3.87;2.00;;;;;;;;;;4971794;28;20465;-87
2023/08/27 10:26:55;;;;;;;2.87;2.03;;;;;;;;;;4973996;28;20516;-87
2023/08/27 10:29:22;;;;;;;5.03;2.30;;;;;;;;;;4975177;28;20424;-87
2023/08/27 10:31:58;;;;;;;3.10;1.70;;;;;;;;;;4968823;28;20835;-87
2023/08/27 10:34:29;;;;;;;3.77;2.30;;;;;;;;;;4951468;28;20515;-88
2023/08/27 10:36:59;;;;;;;2.70;2.00;;;;;;;;;;4965428;28;20923;-86
2023/08/27 10:39:26;;;;;;;4.40;2.27;;;;;;;;;;4983815;28;20433;-89
2023/08/27 10:41:53;;;;;;;3.27;2.27;;;;;;;;;;4968196;28;20472;-87
2023/08/27 10:44:19;;;;;;;5.13;2.50;;;;;;;;;;5010657;28;20445;-87
2023/08/27 10:47:04;;;;;;;3.70;2.70;;;;;;;;;;4981863;28;20460;-87
2023/08/27 10:49:36;;;;;;;2.30;1.63;;;;;;;;;;4991467;28;20441;-88
2023/08/27 10:52:11;;;;;;;2.37;1.70;;;;;;;;;;4973394;28;20448;-87
2023/08/27 10:54:38;;;;;;;2.87;1.97;;;;;;;;;;4991917;28;20433;-87
2023/08/27 10:57:22;;;;;;;3.80;2.10;;;;;;;;;;4986386;28;20453;-87
2023/08/27 10:59:49;;;;;;;3.60;2.17;;;;;;;;;;4993964;28;21054;-87
2023/08/27 11:02:20;;;;;;;2.63;1.90;;;;;;;;;;4976233;28;20543;-87
2023/08/27 11:04:50;;;;;;;3.87;2.30;;;;;;;;;;5005977;28;20484;-86
2023/08/27 11:07:19;;;;;;;3.77;1.70;;;;;;;;;;4966331;28;20436;-87
2023/08/27 11:09:47;;;;;;;3.50;2.00;;;;;;;;;;5001606;28;20424;-87
2023/08/27 11:12:23;;;;;;;2.10;1.47;;;;;;;;;;4980396;28;20447;-89
2023/08/27 11:14:49;;;;;;;3.30;1.90;;;;;;;;;;4979126;28;20482;-89
2023/08/27 11:17:26;;;;;;;5.50;2.30;;;;;;;;;;4966194;28;20440;-89
2023/08/27 11:19:53;;;;;;;4.43;2.20;;;;;;;;;;4978296;28;20441;-87
2023/08/27 11:22:22;;;;;;;3.13;1.93;;;;;;;;;;5000472;28;20503;-88
2023/08/27 11:24:48;;;;;;;2.80;2.00;;;;;;;;;;4963909;28;20500;-88
2023/08/27 11:27:19;;;;;;;4.07;2.40;;;;;;;;;;5000106;28;20440;-87
2023/08/27 11:29:52;;;;;;;3.27;1.80;;;;;;;;;;4965663;28;20428;-87
2023/08/27 11:32:19;;;;;;;4.87;2.30;;;;;;;;;;4975372;28;20967;-89
2023/08/27 11:34:46;;;;;;;3.00;1.70;;;;;;;;;;4970452;28;20432;-88
2023/08/27 11:37:13;;;;;;;3.30;2.27;;;;;;;;;;5012698;28;20500;-88
2023/08/27 11:39:39;;;;;;;4.10;1.53;;;;;;;;;;4966152;28;20910;-87
2023/08/27 11:42:10;;;;;;;2.73;2.13;;;;;;;;;;4944538;28;20469;-89
2023/08/27 11:44:36;;;;;;;2.37;1.80;;;;;;;;;;4946038;28;20452;-88
2023/08/27 11:47:07;;;;;;;2.40;1.60;;;;;;;;;;4943609;29;20467;-87
2023/08/27 11:49:35;;;;;;;2.80;2.00;;;;;;;;;;4944133;28;20430;-87
2023/08/27 11:52:01;;;;;;;2.73;1.90;;;;;;;;;;4962504;28;20421;-86
2023/08/27 11:54:30;;;;;;;8.33;3.37;;;;;;;;;;4951408;28;20464;-88
2023/08/27 11:56:57;;;;;;;2.97;2.00;;;;;;;;;;4948952;28;20464;-89
2023/08/27 11:59:24;;;;;;;2.73;2.07;;;;;;;;;;4947144;28;20437;-88
2023/08/27 12:01:53;;;;;;;2.67;2.20;;;;;;;;;;4961656;28;20472;-87
2023/08/27 12:04:19;;;;;;;4.93;2.00;;;;;;;;;;4950397;28;20430;-85
2023/08/27 12:06:52;;;;;;;4.70;2.47;;;;;;;;;;4944073;29;20985;-87
2023/08/27 12:09:30;;;;;;;3.60;2.43;;;;;;;;;;4946078;29;20562;-87
2023/08/27 12:12:20;;;;;;;2.47;2.07;;;;;;;;;;4963405;28;20453;-88
2023/08/27 12:14:47;;;;;;;4.17;1.97;;;;;;;;;;4963635;28;20433;-88
2023/08/27 12:17:14;;;;;;;4.23;2.40;;;;;;;;;;4947856;28;20509;-88
2023/08/27 12:19:43;;;;;;;6.57;2.23;;;;;;;;;;4945095;28;20505;-88
2023/08/27 12:22:11;;;;;;;5.47;2.50;;;;;;;;;;4946358;28;20472;-87
2023/08/27 12:24:41;;;;;;;4.43;2.67;;;;;;;;;;4975594;28;20472;-87
2023/08/27 12:27:08;;;;;;;2.53;2.00;;;;;;;;;;4972302;28;20448;-86
2023/08/27 12:29:34;;;;;;;3.40;2.60;;;;;;;;;;4968365;28;20533;-88
2023/08/27 12:32:10;;;;;;;2.97;2.27;;;;;;;;;;4986379;28;20469;-88
2023/08/27 12:34:36;;;;;;;3.30;2.60;;;;;;;;;;4976947;28;20445;-86
2023/08/27 12:37:03;;;;;;;6.10;2.20;;;;;;;;;;4984332;28;20418;-87
2023/08/27 12:39:31;;;;;;;7.83;2.17;;;;;;;;;;4982618;28;20485;-86
2023/08/27 12:41:57;;;;;;;3.33;2.40;;;;;;;;;;4997471;28;20468;-87
2023/08/27 12:44:26;;;;;;;5.33;2.60;;;;;;;;;;4969159;28;20471;-87
2023/08/27 12:46:52;;;;;;;2.90;2.30;;;;;;;;;;4970437;28;20579;-87
2023/08/27 12:49:18;;;;;;;3.83;2.30;;;;;;;;;;4967041;28;20471;-88
2023/08/27 12:51:45;;;;;;;2.60;2.40;;;;;;;;;;4970022;28;20441;-87
2023/08/27 12:54:11;;;;;;;5.47;2.30;;;;;;;;;;4980444;28;20456;-87
2023/08/27 12:56:37;;;;;;;3.47;1.80;;;;;;;;;;5004433;28;20546;-87
2023/08/27 12:59:03;;;;;;;3.80;2.30;;;;;;;;;;4967367;28;20424;-87
2023/08/27 13:01:30;;;;;;;3.67;2.40;;;;;;;;;;4983927;28;20480;-87
2023/08/27 13:03:56;;;;;;;2.63;2.00;;;;;;;;;;4970932;28;20733;-88
2023/08/27 13:06:22;;;;;;;3.53;1.80;;;;;;;;;;4968294;28;20443;-88
2023/08/27 13:08:48;;;;;;;2.90;2.20;;;;;;;;;;4989181;28;20962;-87
2023/08/27 13:11:23;;;;;;;3.07;1.80;;;;;;;;;;4968012;28;20437;-87
2023/08/27 13:13:53;;;;;;;3.30;2.00;;;;;;;;;;4987583;28;20443;-88
2023/08/27 13:16:22;;;;;;;4.10;2.60;;;;;;;;;;5010335;28;20498;-88
2023/08/27 13:18:48;;;;;;;3.13;2.30;;;;;;;;;;4973347;28;21398;-87
2023/08/27 13:21:18;;;;;;;2.87;1.80;;;;;;;;;;4977796;28;20473;-88
2023/08/27 13:23:44;;;;;;;2.37;1.60;;;;;;;;;;4977899;28;20447;-88
2023/08/27 13:26:11;;;;;;;3.70;2.43;;;;;;;;;;4966455;28;20928;-88
2023/08/27 13:28:37;;;;;;;3.07;2.23;;;;;;;;;;4965960;28;21413;-87
2023/08/27 13:31:03;;;;;;;3.87;3.00;;;;;;;;;;4970012;28;20457;-87
2023/08/27 13:33:29;;;;;;;3.20;2.27;;;;;;;;;;4983090;28;20519;-87
2023/08/27 13:35:55;;;;;;;3.23;2.33;;;;;;;;;;4970171;28;20483;-88
2023/08/27 13:38:21;;;;;;;3.60;2.07;;;;;;;;;;5001193;28;20469;-86
2023/08/27 13:40:47;;;;;;;3.20;2.13;;;;;;;;;;4974909;28;20491;-86
2023/08/27 13:43:13;;;;;;;3.67;2.23;;;;;;;;;;5000317;28;20449;-87
2023/08/27 13:48:38;;;;;;;6.20;2.43;;;;;;;;;;4961389;28;20682;-85
2023/08/27 13:51:10;;;;;;;3.40;2.60;;;;;;;;;;4974320;28;20441;-89
2023/08/27 13:53:36;;;;;;;4.00;2.47;;;;;;;;;;4969071;28;20437;-87
2023/08/27 13:56:02;;;;;;;3.17;2.70;;;;;;;;;;4977226;28;20420;-87
2023/08/27 13:58:29;;;;;;;2.30;2.00;;;;;;;;;;4979809;28;20456;-88
2023/08/27 14:00:56;;;;;;;2.73;2.10;;;;;;;;;;4990771;28;20511;-88
2023/08/27 14:03:23;;;;;;;3.40;2.57;;;;;;;;;;4975118;28;20520;-88
2023/08/27 14:05:49;;;;;;;3.53;2.23;;;;;;;;;;4977580;28;20435;-88
2023/08/27 14:08:51;;;;;;;3.83;2.20;;;;;;;;;;4969575;28;20508;-87
2023/08/27 14:11:17;;;;;;;3.80;2.27;;;;;;;;;;5003970;28;20416;-88
2023/08/27 14:13:46;;;;;;;4.80;2.50;;;;;;;;;;4966211;28;20855;-88
2023/08/27 14:16:14;;;;;;;3.80;1.80;;;;;;;;;;4973465;28;20951;-89
2023/08/27 14:18:40;;;;;;;3.30;2.20;;;;;;;;;;5013397;28;20429;-89
2023/08/27 14:21:06;;;;;;;3.67;2.47;;;;;;;;;;5017222;28;20550;-88
2023/08/27 14:23:41;;;;;;;2.80;2.10;;;;;;;;;;4967261;28;20440;-90
2023/08/27 14:26:07;;;;;;;3.90;1.97;;;;;;;;;;4985395;28;20416;-89
2023/08/27 14:28:33;;;;;;;2.93;1.77;;;;;;;;;;4963157;28;20452;-88
2023/08/27 14:30:59;;;;;;;3.53;2.00;;;;;;;;;;4982701;28;20472;-90
2023/08/27 14:33:25;;;;;;;5.60;2.40;;;;;;;;;;4968643;28;20451;-89
2023/08/27 14:35:51;;;;;;;2.47;2.03;;;;;;;;;;4968887;28;20429;-91
2023/08/27 14:38:23;;;;;;;4.17;2.30;;;;;;;;;;4971663;28;20448;-90
2023/08/27 14:40:49;;;;;;;5.67;3.30;;;;;;;;;;4971003;28;20459;-92